• Join FlightAware (Why Join?)
  • Login
  • US Flag 
07:57AM EDT


 

Airport Tracker/Info


-or-


 

Live Flight TrackerFlight Track Log ✈ AWE1988 ✈ 25-Jun-2014 ✈ KCLT - KALB

Flight Track Log - Related Links

Times and Time Zones

All times are in EDT time to prevent confusion due to time zone crossing. See the AWE1988 flight status page for this flight to view local times or setup timezone preferences in your user account.

Time Position Orientation Groundspeed Altitude Reporting Facility
EDT Latitude Longitude Course Direction KTS MPH feet Rate Location/Type
01:59PM 35.1950 -80.9356 72° East 154 177 1,400  Level Atlanta Center
02:00PM 35.1575 -80.9344 179° South 176 203 2,600 2,040 Climbing Atlanta Center
02:01PM 35.1039 -80.8781 139° Southeast 271 312 5,000 2,640 Climbing Atlanta Center
02:02PM 35.1755 -80.5830 29° Northeast  Level FlightAware Approximate
02:03PM 35.2919 -80.5011 30° Northeast  Level FlightAware Approximate
02:03PM 35.1278 -80.7553 77° East 262 302 9,600  Level Atlanta Center
02:04PM 35.3565 -80.3789 72° East  Level FlightAware Approximate
02:04PM 35.1925 -80.6269 58° Northeast 300 345 11,500  Level Washington Center
02:05PM 35.3977 -80.2223 72° East  Level FlightAware Approximate
02:05PM 35.2494 -80.5133 58° Northeast 344 396 12,600  Level Washington Center
02:06PM 35.3128 -80.3875 58° Northeast 390 449 14,400 1,920 Climbing Washington Center
02:07PM 35.3764 -80.2614 58° Northeast 417 480 16,400 1,740 Climbing Washington Center
02:08PM 35.4378 -80.1272 61° Northeast 436 502 17,900 1,620 Climbing Washington Center
02:09PM 35.4753 -79.9661 74° East 442 509 19,700 1,560 Climbing Washington Center
02:10PM 35.5139 -79.8153 73° East 453 521 21,100 1,260 Climbing Washington Center
02:11PM 35.5569 -79.6567 72° East 464 534 22,300 1,200 Climbing Washington Center
02:12PM 35.6000 -79.4978 72° East 488 562 23,500 1,080 Climbing Washington Center
02:13PM 35.6486 -79.3444 69° East 488 562 24,500 840 Climbing Washington Center
02:14PM 35.7342 -79.2075 52° Northeast 488 562 25,300 780 Climbing Washington Center
02:15PM 35.8217 -79.0708 52° Northeast 493 567 26,100 1,020 Climbing Washington Center
02:16PM 35.9092 -78.9336 52° Northeast 504 580 27,400 1,200 Climbing Washington Center
02:17PM 35.9942 -78.7986 52° Northeast 509 586 28,600 1,620 Climbing Washington Center
02:18PM 36.0792 -78.6606 53° Northeast 504 580 30,700 1,980 Climbing Washington Center
02:19PM 36.1594 -78.5350 52° Northeast 487 560 32,600 1,620 Climbing Washington Center
02:20PM 36.2378 -78.4092 52° Northeast 477 549 34,100 1,200 Climbing Washington Center
02:21PM 36.3158 -78.2806 53° Northeast 467 537 35,000 420 Climbing Washington Center
02:22PM 36.4161 -78.1756 40° Northeast 462 532 35,000  Level Washington Center
02:23PM 36.5206 -78.0706 39° Northeast 462 532 35,000 120 Level Washington Center
02:24PM 36.6311 -77.9681 37° Northeast 483 556 35,300 540 Climbing Washington Center
02:25PM 36.7436 -77.8678 36° Northeast 494 568 36,100 780 Climbing Washington Center
02:26PM 36.8561 -77.7672 36° Northeast 494 568 37,000 1,140 Climbing Washington Center
02:27PM 36.9622 -77.6661 37° Northeast 489 563 38,500 960 Climbing Washington Center
02:28PM 37.0700 -77.5781 33° Northeast 479 551 39,000 240 Climbing Washington Center
02:29PM 37.1903 -77.5028 26° Northeast 479 551 39,000  Level Washington Center
02:30PM 37.2794 -77.3956 44° Northeast 480 552 39,000  Level Washington Center
02:31PM 37.3897 -77.2725 42° Northeast 480 552 39,000  Level Washington Center
02:33PM 37.6117 -77.0625 37° Northeast 498 573 39,000  Level Washington Center
02:34PM 37.7211 -76.9569 37° Northeast 493 567 39,000  Level Washington Center
02:35PM 37.8286 -76.8539 37° Northeast 493 567 39,000  Level Washington Center
02:36PM 37.9383 -76.7503 37° Northeast 493 567 39,000  Level Washington Center
02:37PM 38.0433 -76.6464 38° Northeast 493 567 39,000  Level Washington Center
02:38PM 38.1547 -76.5422 36° Northeast 488 562 39,000  Level Washington Center
02:39PM 38.2619 -76.4353 38° Northeast 488 562 39,000  Level Washington Center
02:40PM 38.3711 -76.3278 38° Northeast 488 562 39,000  Level Washington Center
02:41PM 38.4842 -76.2231 36° Northeast 488 562 39,000  Level Washington Center
02:42PM 38.5703 -76.1386 37° Northeast 488 562 39,000  Level Washington Center
02:43PM 38.6917 -76.0225 37° Northeast 488 562 39,000  Level Washington Center
02:44PM 38.8025 -75.9139 37° Northeast 488 562 39,000  Level Washington Center
02:45PM 38.9131 -75.8025 38° Northeast 488 562 39,000  Level Washington Center
02:46PM 39.0217 -75.6958 37° Northeast 493 567 39,000  Level Washington Center
02:47PM 39.1322 -75.5864 38° Northeast 493 567 39,000  Level Washington Center
02:48PM 39.2425 -75.4764 38° Northeast 493 567 39,000  Level Washington Center
02:49PM 39.3508 -75.3689 37° Northeast 499 574 39,000  Level Washington Center
02:50PM 39.4589 -75.2583 38° Northeast 493 567 39,000  Level Washington Center
02:51PM 39.5772 -75.1392 38° Northeast 493 567 39,000  Level Washington Center
02:54PM 39.8422 -74.8669 38° Northeast 492 566 39,000 -420 Level New York Center
02:55PM 39.9394 -74.7669 38° Northeast 492 566 37,700 -1,560 Descending New York Center
02:56PM 40.0475 -74.6567 38° Northeast 487 560 35,900 -1,800 Descending New York Center
02:57PM 40.1533 -74.5458 39° Northeast 487 560 34,100 -1,860 Descending New York Center
02:58PM 40.2633 -74.4267 40° Northeast 506 582 32,300 -1,860 Descending New York Center
02:59PM 40.3753 -74.3100 38° Northeast 506 582 30,400 -1,980 Descending New York Center
03:01PM 40.6317 -74.0319 39° Northeast 511 588 25,900 -1,920 Descending Boston Center
03:02PM 40.7289 -73.9283 39° Northeast 516 594 24,300 -960 Descending Boston Center
03:03PM 40.8578 -73.7806 41° Northeast 514 592 24,000 -360 Descending Boston Center
03:04PM 40.9628 -73.6525 43° Northeast 513 590 23,600 -540 Descending Boston Center
03:05PM 41.0808 -73.5547 32° Northeast 520 598 23,000 -780 Descending Boston Center
03:06PM 41.2117 -73.5000 17° North 496 571 22,100 -960 Descending Boston Center
03:07PM 41.3431 -73.4475 17° North 494 568 21,100 -1,020 Descending Boston Center
03:08PM 41.4739 -73.4575 357° North 474 545 20,100 -1,080 Descending Boston Center
03:09PM 41.6231 -73.4744 355° North 467 537 18,900 -1,260 Descending Boston Center
03:10PM 41.7481 -73.4869 356° North 458 527 17,600 -1,200 Descending Boston Center
03:11PM 41.8719 -73.5000 356° North 451 519 16,500 -1,020 Descending Boston Center
03:12PM 42.0025 -73.5139 355° North 444 511 15,500 -780 Descending Boston Center
03:13PM 42.1047 -73.5239 356° North 435 501 15,000 -360 Descending Boston Center
03:14PM 42.2194 -73.5067 North 441 507 14,900 -540 Descending Boston Center
03:14PM 42.2658 -73.4989 North 439 505 14,400 -1,680 Descending Boston Center
03:15PM 42.3683 -73.4736 10° North 435 501 12,700 -2,400 Descending Boston Center
03:16PM 42.4103 -73.4714 North 421 484 11,500 -1,920 Descending Boston Center
03:16PM 42.4869 -73.4881 351° North 397 457 10,800 -1,020 Descending Boston Center
03:17PM 42.5131 -73.4967 346° North 350 403 10,500 -1,500 Descending Boston Center
03:17PM 42.5739 -73.5086 352° North 317 365 9,300 -1,920 Descending Boston Center
03:18PM 42.5981 -73.5133 352° North 288 331 8,600 -2,220 Descending Boston Center
03:18PM 42.6506 -73.5350 343° North 291 335 6,900 -2,460 Descending Boston Center
03:19PM 42.6706 -73.5519 328° Northwest 277 319 6,100 -2,580 Descending Boston Center
03:19PM 42.7231 -73.5914 331° Northwest 283 326 4,300 -2,160 Descending Boston Center
03:20PM 42.7536 -73.6144 331° Northwest 279 321 3,500 -1,440 Descending Boston Center
03:20PM 42.7886 -73.6436 329° Northwest 277 319 2,900 -600 Descending Boston Center
03:21PM 42.8111 -73.6631 328° Northwest 260 299 3,000 -300 Climbing Boston Center
03:21PM 42.8431 -73.6989 321° Northwest 246 283 2,600 -840 Descending Boston Center
03:22PM 42.8553 -73.7275 300° West 230 265 2,200 -840 Descending Boston Center
03:22PM 42.8589 -73.7847 275° West 224 258 1,700 -600 Descending Boston Center
03:23PM 42.8483 -73.8008 228° Southwest 196 226 1,600 -300 Descending Boston Center
03:23PM 42.8183 -73.8081 190° South 169 194 1,400 -480 Descending Boston Center
03:24PM 42.8022 -73.8058 174° South 121 139 1,100 -720 Descending Boston Center
03:24PM 42.7806 -73.8064 181° South 133 153 700 -660 Descending Boston Center
03:25PM 42.7744 -73.8053 172° South 118 136 600 -540 Descending Boston Center
03:25PM 42.7461 -73.8039 178° South 124 143 200 -540 Descending Boston Center